Time;durP1;ratioP1;P1;durP2;ratioP2;P2;SDS_P1;SDS_P2;PMS_P1;PMS_P2;Temp;Humidity;BMP_temperature;BMP_pressure;BME280_temperature;BME280_humidity;BME280_pressure;Samples;Min_cycle;Max_cycle;Signal;HPM_P1;HPM_P2
2020/12/17 00:00:45;;;;;;;50.30;27.13;;;;;;;;;;5077224;28;20449;-73
2020/12/17 00:03:16;;;;;;;49.73;26.97;;;;;;;;;;5078396;28;20456;-73
2020/12/17 00:05:43;;;;;;;45.40;26.83;;;;;;;;;;5086300;28;21080;-73
2020/12/17 00:08:10;;;;;;;50.60;27.67;;;;;;;;;;5083551;28;20466;-73
2020/12/17 00:10:41;;;;;;;48.50;26.60;;;;;;;;;;5077681;28;20456;-74
2020/12/17 00:13:09;;;;;;;47.57;26.13;;;;;;;;;;5078013;28;20755;-73
2020/12/17 00:15:36;;;;;;;51.60;27.47;;;;;;;;;;5080029;28;20457;-73
2020/12/17 00:18:04;;;;;;;46.73;26.10;;;;;;;;;;5094933;28;20485;-73
2020/12/17 00:20:32;;;;;;;56.17;26.43;;;;;;;;;;5081733;28;20441;-73
2020/12/17 00:22:59;;;;;;;52.87;28.33;;;;;;;;;;5087200;28;20456;-74
2020/12/17 00:25:27;;;;;;;47.83;26.83;;;;;;;;;;5080757;28;20445;-73
2020/12/17 00:27:55;;;;;;;45.67;26.07;;;;;;;;;;5080952;28;21055;-73
2020/12/17 00:30:23;;;;;;;50.40;24.67;;;;;;;;;;5097300;28;20452;-73
2020/12/17 00:32:50;;;;;;;49.97;28.23;;;;;;;;;;5096206;28;20768;-73
2020/12/17 00:35:18;;;;;;;52.83;29.20;;;;;;;;;;5093495;28;20449;-73
2020/12/17 00:37:45;;;;;;;49.37;27.93;;;;;;;;;;5093100;28;20464;-73
2020/12/17 00:40:14;;;;;;;48.73;27.60;;;;;;;;;;5077246;28;20453;-73
2020/12/17 00:42:42;;;;;;;45.07;26.30;;;;;;;;;;5077287;28;20453;-73
2020/12/17 00:45:11;;;;;;;50.57;26.57;;;;;;;;;;5088473;28;20455;-73
2020/12/17 00:47:40;;;;;;;49.00;27.47;;;;;;;;;;5077093;28;20464;-73
2020/12/17 00:50:08;;;;;;;46.23;27.30;;;;;;;;;;5083626;28;20445;-73
2020/12/17 00:52:36;;;;;;;48.17;26.00;;;;;;;;;;5096678;28;20494;-73
2020/12/17 00:55:07;;;;;;;53.60;27.23;;;;;;;;;;5094056;28;20454;-73
2020/12/17 00:57:34;;;;;;;47.67;26.13;;;;;;;;;;5094563;28;20543;-73
2020/12/17 01:00:01;;;;;;;44.00;25.60;;;;;;;;;;5077225;28;20457;-73
2020/12/17 01:02:29;;;;;;;47.07;25.40;;;;;;;;;;5077987;28;20461;-73
2020/12/17 01:04:57;;;;;;;45.27;25.97;;;;;;;;;;5076784;28;20453;-73
2020/12/17 01:07:24;;;;;;;43.17;26.80;;;;;;;;;;5076886;28;20483;-73
2020/12/17 01:09:52;;;;;;;45.03;27.00;;;;;;;;;;5076641;28;20453;-73
2020/12/17 01:12:22;;;;;;;46.40;26.40;;;;;;;;;;5076152;28;20506;-73
2020/12/17 01:14:50;;;;;;;45.60;25.17;;;;;;;;;;5076398;28;20468;-73
2020/12/17 01:17:18;;;;;;;41.10;24.60;;;;;;;;;;5086936;28;20761;-73
2020/12/17 01:19:45;;;;;;;45.30;24.90;;;;;;;;;;5078632;28;20468;-73
2020/12/17 01:22:13;;;;;;;44.67;25.77;;;;;;;;;;5077336;28;20457;-73
2020/12/17 01:24:40;;;;;;;45.27;24.80;;;;;;;;;;5076602;28;20460;-73
2020/12/17 01:27:08;;;;;;;43.73;25.90;;;;;;;;;;5075940;28;20445;-73
2020/12/17 01:29:35;;;;;;;48.27;27.23;;;;;;;;;;5076759;28;20481;-73
2020/12/17 01:32:02;;;;;;;46.70;25.57;;;;;;;;;;5083351;28;20527;-73
2020/12/17 01:34:30;;;;;;;47.80;27.97;;;;;;;;;;5077804;28;20453;-73
2020/12/17 01:36:57;;;;;;;43.07;23.73;;;;;;;;;;5076297;28;20453;-73
2020/12/17 01:39:26;;;;;;;37.23;24.80;;;;;;;;;;5087946;28;20463;-73
2020/12/17 01:41:54;;;;;;;45.97;25.67;;;;;;;;;;5096698;28;20529;-73
2020/12/17 01:44:22;;;;;;;46.00;27.30;;;;;;;;;;5086679;28;20453;-73
2020/12/17 01:46:50;;;;;;;41.67;24.33;;;;;;;;;;5076158;28;20461;-73
2020/12/17 01:49:19;;;;;;;37.20;23.70;;;;;;;;;;5077785;28;20445;-73
2020/12/17 01:51:47;;;;;;;43.17;23.93;;;;;;;;;;5076642;28;20468;-73
2020/12/17 01:54:14;;;;;;;40.40;24.00;;;;;;;;;;5076647;28;20558;-73
2020/12/17 01:56:45;;;;;;;41.47;25.20;;;;;;;;;;5087848;28;20552;-73
2020/12/17 01:59:16;;;;;;;38.33;23.00;;;;;;;;;;5075802;28;20453;-73
2020/12/17 02:01:47;;;;;;;43.23;26.37;;;;;;;;;;5086291;28;20456;-73
2020/12/17 02:04:16;;;;;;;42.30;24.57;;;;;;;;;;5095256;28;20550;-72
2020/12/17 02:06:44;;;;;;;46.63;25.00;;;;;;;;;;5096093;28;20470;-73
2020/12/17 02:09:11;;;;;;;40.03;24.57;;;;;;;;;;5095941;28;20436;-72
2020/12/17 02:11:39;;;;;;;40.73;25.57;;;;;;;;;;5095820;28;20495;-72
2020/12/17 02:14:07;;;;;;;36.63;23.67;;;;;;;;;;5083273;28;20477;-72
2020/12/17 02:16:35;;;;;;;41.37;24.37;;;;;;;;;;5075380;28;20467;-72
2020/12/17 02:19:02;;;;;;;48.60;24.90;;;;;;;;;;5075968;28;20449;-73
2020/12/17 02:21:30;;;;;;;39.87;22.40;;;;;;;;;;5076343;28;20521;-73
2020/12/17 02:23:58;;;;;;;36.20;22.30;;;;;;;;;;5077316;28;20460;-73
2020/12/17 02:26:27;;;;;;;37.20;22.90;;;;;;;;;;5079798;28;20457;-73
2020/12/17 02:28:55;;;;;;;42.57;24.87;;;;;;;;;;5098361;28;20448;-73
2020/12/17 02:31:25;;;;;;;41.10;24.00;;;;;;;;;;5097860;28;20742;-72
2020/12/17 02:33:52;;;;;;;38.97;22.37;;;;;;;;;;5099986;28;20915;-73
2020/12/17 02:36:23;;;;;;;37.93;22.23;;;;;;;;;;5085834;28;20449;-74
2020/12/17 02:38:52;;;;;;;44.43;23.00;;;;;;;;;;5090608;28;20478;-73
2020/12/17 02:41:19;;;;;;;37.80;20.27;;;;;;;;;;5082612;28;20517;-73
2020/12/17 02:43:48;;;;;;;45.07;23.23;;;;;;;;;;5079576;28;20460;-72
2020/12/17 02:46:15;;;;;;;42.87;24.57;;;;;;;;;;5079575;28;20465;-73
2020/12/17 02:48:43;;;;;;;39.80;23.60;;;;;;;;;;5079795;28;20461;-73
2020/12/17 02:51:12;;;;;;;40.60;25.50;;;;;;;;;;5079342;28;20857;-73
2020/12/17 02:53:45;;;;;;;36.30;20.53;;;;;;;;;;5079378;28;20506;-72
2020/12/17 02:56:13;;;;;;;38.60;22.57;;;;;;;;;;5079335;28;20748;-73
2020/12/17 02:58:41;;;;;;;42.43;25.43;;;;;;;;;;5092327;28;20459;-73
2020/12/17 03:01:09;;;;;;;38.37;23.13;;;;;;;;;;5097753;28;20459;-72
2020/12/17 03:03:36;;;;;;;40.17;25.00;;;;;;;;;;5099241;28;20460;-73
2020/12/17 03:06:04;;;;;;;42.17;22.90;;;;;;;;;;5087895;28;20464;-72
2020/12/17 03:08:31;;;;;;;42.67;25.27;;;;;;;;;;5078813;28;20460;-72
2020/12/17 03:10:59;;;;;;;41.20;22.70;;;;;;;;;;5078848;28;20452;-72
2020/12/17 03:13:26;;;;;;;41.57;23.47;;;;;;;;;;5079180;28;20753;-72
2020/12/17 03:15:53;;;;;;;36.73;22.47;;;;;;;;;;5091303;28;21080;-72
2020/12/17 03:18:22;;;;;;;38.60;22.90;;;;;;;;;;5091432;28;20465;-72
2020/12/17 03:20:50;;;;;;;43.97;23.60;;;;;;;;;;5092235;28;20448;-73
2020/12/17 03:23:17;;;;;;;41.23;23.57;;;;;;;;;;5082135;28;20518;-72
2020/12/17 03:25:44;;;;;;;37.63;21.83;;;;;;;;;;5079163;28;21021;-72
2020/12/17 03:28:12;;;;;;;37.73;24.40;;;;;;;;;;5078674;28;20453;-72
2020/12/17 03:30:39;;;;;;;38.77;21.60;;;;;;;;;;5078680;28;20780;-74
2020/12/17 03:33:10;;;;;;;37.47;24.63;;;;;;;;;;5078576;28;20550;-74
2020/12/17 03:35:38;;;;;;;35.33;23.53;;;;;;;;;;5080391;28;20453;-72
2020/12/17 03:38:05;;;;;;;41.37;24.27;;;;;;;;;;5078446;28;20951;-73
2020/12/17 03:40:32;;;;;;;37.20;24.10;;;;;;;;;;5079206;28;20522;-73
2020/12/17 03:43:00;;;;;;;42.17;21.60;;;;;;;;;;5078329;28;20445;-73
2020/12/17 03:45:27;;;;;;;41.03;22.70;;;;;;;;;;5084289;28;20672;-73
2020/12/17 03:47:55;;;;;;;36.37;22.00;;;;;;;;;;5090225;28;20442;-73
2020/12/17 03:50:22;;;;;;;42.20;23.30;;;;;;;;;;5089180;28;20491;-72
2020/12/17 03:52:51;;;;;;;40.17;22.07;;;;;;;;;;5098807;28;20484;-73
2020/12/17 03:55:18;;;;;;;38.03;22.57;;;;;;;;;;5098145;28;20483;-73
2020/12/17 03:57:45;;;;;;;34.83;21.90;;;;;;;;;;5098480;28;20444;-73
2020/12/17 04:00:13;;;;;;;34.43;21.30;;;;;;;;;;5094976;28;20456;-73
2020/12/17 04:02:40;;;;;;;36.10;22.10;;;;;;;;;;5078017;28;20850;-73
2020/12/17 04:05:11;;;;;;;37.03;20.77;;;;;;;;;;5078696;28;20541;-73
2020/12/17 04:07:39;;;;;;;32.77;19.40;;;;;;;;;;5088545;28;20488;-73
2020/12/17 04:10:07;;;;;;;33.00;20.97;;;;;;;;;;5077388;28;20453;-73
2020/12/17 04:12:34;;;;;;;35.57;20.83;;;;;;;;;;5077494;28;20473;-75
2020/12/17 04:15:01;;;;;;;33.63;21.47;;;;;;;;;;5076950;28;20461;-73
2020/12/17 04:17:29;;;;;;;35.60;20.50;;;;;;;;;;5095761;28;20517;-73
2020/12/17 04:19:57;;;;;;;30.27;20.67;;;;;;;;;;5097222;28;20443;-73
2020/12/17 04:22:24;;;;;;;37.40;20.70;;;;;;;;;;5098052;28;20460;-73
2020/12/17 04:24:51;;;;;;;39.10;22.53;;;;;;;;;;5093263;28;20461;-73
2020/12/17 04:27:20;;;;;;;36.50;20.53;;;;;;;;;;5097376;28;20514;-73
2020/12/17 04:29:48;;;;;;;36.00;21.20;;;;;;;;;;5096369;28;20517;-73
2020/12/17 04:32:15;;;;;;;35.13;20.47;;;;;;;;;;5095735;28;20462;-73
2020/12/17 04:34:46;;;;;;;35.67;20.63;;;;;;;;;;5083962;28;20544;-73
2020/12/17 04:37:16;;;;;;;29.90;20.30;;;;;;;;;;5080971;28;20785;-73
2020/12/17 04:39:44;;;;;;;35.77;20.23;;;;;;;;;;5077552;28;20449;-74
2020/12/17 04:42:12;;;;;;;33.90;19.97;;;;;;;;;;5078163;28;20461;-72
2020/12/17 04:44:43;;;;;;;32.00;19.10;;;;;;;;;;5085788;28;20869;-73
2020/12/17 04:47:10;;;;;;;38.53;19.30;;;;;;;;;;5093665;28;20464;-73
2020/12/17 04:49:40;;;;;;;32.10;19.73;;;;;;;;;;5086581;28;20448;-73
2020/12/17 04:52:08;;;;;;;30.40;19.70;;;;;;;;;;5077284;28;20457;-73
2020/12/17 04:54:35;;;;;;;33.13;20.30;;;;;;;;;;5085141;28;20503;-73
2020/12/17 04:57:09;;;;;;;31.50;18.90;;;;;;;;;;5093870;28;20880;-73
2020/12/17 04:59:41;;;;;;;32.80;19.87;;;;;;;;;;5095146;28;20477;-72
2020/12/17 05:02:11;;;;;;;31.77;19.60;;;;;;;;;;5077778;28;20770;-73
2020/12/17 05:04:39;;;;;;;31.43;18.70;;;;;;;;;;5085636;28;20455;-74
2020/12/17 05:07:08;;;;;;;35.57;20.13;;;;;;;;;;5097068;28;20734;-73
2020/12/17 05:09:41;;;;;;;30.30;19.20;;;;;;;;;;5097104;28;20452;-73
2020/12/17 05:12:08;;;;;;;29.70;19.30;;;;;;;;;;5085138;28;20456;-73
2020/12/17 05:14:35;;;;;;;30.97;19.20;;;;;;;;;;5076384;28;20804;-73
2020/12/17 05:17:04;;;;;;;33.90;19.93;;;;;;;;;;5076010;28;20526;-73
2020/12/17 05:19:32;;;;;;;27.43;20.73;;;;;;;;;;5075959;28;20457;-73
2020/12/17 05:21:59;;;;;;;30.07;19.13;;;;;;;;;;5076875;28;20464;-72
2020/12/17 05:24:27;;;;;;;27.53;19.23;;;;;;;;;;5075776;28;20449;-73
2020/12/17 05:26:55;;;;;;;29.43;19.73;;;;;;;;;;5079056;28;20935;-73
2020/12/17 05:29:25;;;;;;;32.70;18.47;;;;;;;;;;5076085;28;20449;-73
2020/12/17 05:31:53;;;;;;;28.93;18.30;;;;;;;;;;5089069;28;20460;-73
2020/12/17 05:34:24;;;;;;;29.40;19.67;;;;;;;;;;5096446;28;20599;-73
2020/12/17 05:36:51;;;;;;;26.50;18.60;;;;;;;;;;5095983;28;20532;-73
2020/12/17 05:39:20;;;;;;;31.80;19.13;;;;;;;;;;5095673;28;20460;-72
2020/12/17 05:41:49;;;;;;;26.20;18.33;;;;;;;;;;5096257;28;20480;-73
2020/12/17 05:44:16;;;;;;;27.77;17.40;;;;;;;;;;5096173;28;20816;-72
2020/12/17 05:46:45;;;;;;;29.37;18.43;;;;;;;;;;5077863;28;20461;-74
2020/12/17 05:49:13;;;;;;;29.40;18.63;;;;;;;;;;5076224;28;20554;-73
2020/12/17 05:51:41;;;;;;;24.80;18.90;;;;;;;;;;5076665;28;20526;-73
2020/12/17 05:54:12;;;;;;;27.60;17.60;;;;;;;;;;5076147;28;20491;-74
2020/12/17 05:56:39;;;;;;;32.43;19.03;;;;;;;;;;5075616;28;20750;-74
2020/12/17 05:59:07;;;;;;;29.37;16.53;;;;;;;;;;5077002;28;20453;-73
2020/12/17 06:01:34;;;;;;;27.70;16.60;;;;;;;;;;5080359;28;20559;-73
2020/12/17 06:04:14;;;;;;;27.70;18.57;;;;;;;;;;5079791;28;20511;-73
2020/12/17 06:06:45;;;;;;;28.03;17.13;;;;;;;;;;5080214;28;20461;-73
2020/12/17 06:09:19;;;;;;;31.60;18.97;;;;;;;;;;5079705;28;20460;-73
2020/12/17 06:11:46;;;;;;;25.30;17.50;;;;;;;;;;5080470;28;20526;-73
2020/12/17 06:14:15;;;;;;;28.10;18.03;;;;;;;;;;5079535;28;20576;-73
2020/12/17 06:16:44;;;;;;;28.70;17.53;;;;;;;;;;5079038;28;20461;-73
2020/12/17 06:19:13;;;;;;;27.27;16.30;;;;;;;;;;5083181;28;20452;-73
2020/12/17 06:21:41;;;;;;;26.70;16.67;;;;;;;;;;5080022;28;20538;-73
2020/12/17 06:24:10;;;;;;;27.60;18.30;;;;;;;;;;5079492;28;20543;-73
2020/12/17 06:26:40;;;;;;;27.80;18.23;;;;;;;;;;5079524;28;20456;-73
2020/12/17 06:29:18;;;;;;;30.70;18.37;;;;;;;;;;5079473;28;20526;-73
2020/12/17 06:31:53;;;;;;;25.83;15.80;;;;;;;;;;5079333;28;20514;-73
2020/12/17 06:34:21;;;;;;;26.33;17.57;;;;;;;;;;5089669;28;20507;-73
2020/12/17 06:36:51;;;;;;;24.63;16.37;;;;;;;;;;5099611;28;20520;-73
2020/12/17 06:39:20;;;;;;;23.77;15.20;;;;;;;;;;5100296;28;20529;-73
2020/12/17 06:41:48;;;;;;;24.63;16.30;;;;;;;;;;5099247;28;20731;-73
2020/12/17 06:44:34;;;;;;;23.80;14.67;;;;;;;;;;5087778;28;20444;-74
2020/12/17 06:47:01;;;;;;;24.40;16.57;;;;;;;;;;5095317;28;20458;-73
2020/12/17 06:49:32;;;;;;;21.60;15.47;;;;;;;;;;5078587;28;20457;-73
2020/12/17 06:52:07;;;;;;;26.30;16.27;;;;;;;;;;5078780;28;20521;-74
2020/12/17 06:54:38;;;;;;;21.43;14.50;;;;;;;;;;5078189;28;20484;-73
2020/12/17 06:57:06;;;;;;;22.47;15.50;;;;;;;;;;5078658;28;20564;-74
2020/12/17 06:59:34;;;;;;;25.50;17.07;;;;;;;;;;5077846;28;21033;-73
2020/12/17 07:02:02;;;;;;;20.93;14.60;;;;;;;;;;5078319;28;20441;-74
2020/12/17 07:04:36;;;;;;;21.43;15.00;;;;;;;;;;5078313;28;20526;-73
2020/12/17 07:07:19;;;;;;;23.30;16.20;;;;;;;;;;5078652;28;20460;-73
2020/12/17 07:09:51;;;;;;;25.20;15.33;;;;;;;;;;5076224;28;20875;-73
2020/12/17 07:12:40;;;;;;;23.00;15.87;;;;;;;;;;5078581;28;20710;-73
2020/12/17 07:15:27;;;;;;;25.77;14.90;;;;;;;;;;5077549;28;20460;-73
2020/12/17 07:17:56;;;;;;;28.60;16.37;;;;;;;;;;5078357;28;20714;-74
2020/12/17 07:20:30;;;;;;;21.03;14.00;;;;;;;;;;5078150;28;20457;-74
2020/12/17 07:22:58;;;;;;;26.10;16.00;;;;;;;;;;5085745;28;20444;-73
2020/12/17 07:25:33;;;;;;;20.50;14.90;;;;;;;;;;5097602;28;20875;-73
2020/12/17 07:28:01;;;;;;;23.07;14.43;;;;;;;;;;5098566;28;20462;-73
2020/12/17 07:30:29;;;;;;;19.77;13.93;;;;;;;;;;5098136;28;20462;-73
2020/12/17 07:32:56;;;;;;;21.37;15.23;;;;;;;;;;5098208;28;20480;-73
2020/12/17 07:35:26;;;;;;;20.47;14.97;;;;;;;;;;5098430;28;20468;-73
2020/12/17 07:37:55;;;;;;;20.03;14.70;;;;;;;;;;5097930;28;20482;-74
2020/12/17 07:40:26;;;;;;;20.53;12.73;;;;;;;;;;5082105;28;20465;-73
2020/12/17 07:43:01;;;;;;;20.47;14.03;;;;;;;;;;5087866;28;20433;-74
2020/12/17 07:45:55;;;;;;;20.67;12.70;;;;;;;;;;5077292;28;20865;-74
2020/12/17 07:48:50;;;;;;;21.70;14.47;;;;;;;;;;5059525;28;20497;-74
2020/12/17 07:51:36;;;;;;;19.63;13.20;;;;;;;;;;5060593;28;20457;-73
2020/12/17 07:56:48;;;;;;;18.50;13.40;;;;;;;;;;5095860;28;20459;-74
2020/12/17 07:59:17;;;;;;;22.83;12.80;;;;;;;;;;5096806;28;20452;-74
2020/12/17 08:01:48;;;;;;;24.23;15.03;;;;;;;;;;5096313;28;20863;-74
2020/12/17 08:04:16;;;;;;;20.77;14.37;;;;;;;;;;5096780;28;20959;-73
2020/12/17 08:06:43;;;;;;;18.20;11.47;;;;;;;;;;5097665;28;20959;-73
2020/12/17 08:09:11;;;;;;;21.60;13.80;;;;;;;;;;5098164;28;20518;-74
2020/12/17 08:11:39;;;;;;;18.70;13.50;;;;;;;;;;5096479;28;20448;-74
2020/12/17 08:14:07;;;;;;;23.17;13.93;;;;;;;;;;5097058;28;20488;-74
2020/12/17 08:16:36;;;;;;;22.03;13.93;;;;;;;;;;5097295;28;20547;-74
2020/12/17 08:19:06;;;;;;;20.23;14.23;;;;;;;;;;5099503;28;20747;-74
2020/12/17 08:21:34;;;;;;;20.60;13.57;;;;;;;;;;5096871;28;20455;-74
2020/12/17 08:24:02;;;;;;;23.37;13.40;;;;;;;;;;5096931;28;20459;-73
2020/12/17 08:26:30;;;;;;;17.77;13.33;;;;;;;;;;5096117;28;20441;-74
2020/12/17 08:28:59;;;;;;;19.80;13.40;;;;;;;;;;5077383;28;20495;-73
2020/12/17 08:31:27;;;;;;;18.00;12.57;;;;;;;;;;5081316;28;20440;-73
2020/12/17 08:33:56;;;;;;;18.60;12.40;;;;;;;;;;5077064;28;20488;-74
2020/12/17 08:36:29;;;;;;;17.20;12.63;;;;;;;;;;5087280;28;20528;-74
2020/12/17 08:38:58;;;;;;;19.87;11.90;;;;;;;;;;5096894;28;20466;-74
2020/12/17 08:41:29;;;;;;;18.40;12.60;;;;;;;;;;5096058;28;20771;-74
2020/12/17 08:44:03;;;;;;;22.53;11.70;;;;;;;;;;5095139;28;20463;-74
2020/12/17 08:46:34;;;;;;;20.70;12.13;;;;;;;;;;5094718;28;20445;-74
2020/12/17 08:49:07;;;;;;;15.10;10.37;;;;;;;;;;5096172;28;20901;-74
2020/12/17 08:51:36;;;;;;;18.93;11.90;;;;;;;;;;5094993;28;20452;-74
2020/12/17 08:54:10;;;;;;;15.70;10.90;;;;;;;;;;5091217;28;20473;-74
2020/12/17 08:56:42;;;;;;;16.53;10.57;;;;;;;;;;5079616;28;20444;-74
2020/12/17 08:59:10;;;;;;;17.20;11.20;;;;;;;;;;5077224;28;20777;-74
2020/12/17 09:01:41;;;;;;;17.40;11.27;;;;;;;;;;5076434;28;20469;-74
2020/12/17 09:04:10;;;;;;;14.50;9.83;;;;;;;;;;5082508;28;20492;-74
2020/12/17 09:06:41;;;;;;;15.63;11.57;;;;;;;;;;5095773;28;20456;-74
2020/12/17 09:09:24;;;;;;;;;;;;;;;;;;;;;
2020/12/17 09:11:59;;;;;;;18.43;11.53;;;;;;;;;;5096189;28;20875;-74
2020/12/17 09:14:30;;;;;;;12.30;9.33;;;;;;;;;;5094466;28;20496;-73
2020/12/17 09:17:11;;;;;;;13.33;9.80;;;;;;;;;;5095158;28;20513;-74
2020/12/17 09:19:43;;;;;;;17.77;11.30;;;;;;;;;;5096518;28;20452;-74
2020/12/17 09:22:19;;;;;;;14.60;9.87;;;;;;;;;;5092514;28;20535;-73
2020/12/17 09:24:48;;;;;;;13.53;9.50;;;;;;;;;;5080654;28;20464;-74
2020/12/17 09:27:31;;;;;;;;;;;;;;;;;;;;;
2020/12/17 09:30:16;;;;;;;18.90;10.30;;;;;;;;;;5074306;28;20441;-74
2020/12/17 09:32:55;;;;;;;14.97;10.47;;;;;;;;;;5073196;28;20437;-75
2020/12/17 09:35:56;;;;;;;15.93;10.13;;;;;;;;;;5075825;28;20444;-74
2020/12/17 09:38:28;;;;;;;13.93;9.93;;;;;;;;;;5059322;28;20526;-75
2020/12/17 09:41:11;;;;;;;15.53;9.53;;;;;;;;;;5074797;28;20879;-74
2020/12/17 09:43:48;;;;;;;13.30;9.13;;;;;;;;;;5075198;28;20480;-74
2020/12/17 09:46:18;;;;;;;11.43;9.50;;;;;;;;;;5075433;28;20466;-74
2020/12/17 09:48:59;;;;;;;14.37;10.90;;;;;;;;;;5075811;28;21074;-73
2020/12/17 09:51:27;;;;;;;15.20;9.57;;;;;;;;;;5075029;28;20780;-74
2020/12/17 09:54:14;;;;;;;14.20;10.67;;;;;;;;;;5074283;28;20479;-73
2020/12/17 09:57:00;;;;;;;13.50;9.70;;;;;;;;;;5074694;28;20935;-74
2020/12/17 09:59:27;;;;;;;14.57;9.73;;;;;;;;;;5073822;28;20465;-73
2020/12/17 10:01:58;;;;;;;16.37;10.43;;;;;;;;;;5073812;28;20465;-73
2020/12/17 10:04:26;;;;;;;16.87;10.73;;;;;;;;;;5073944;28;20521;-73
2020/12/17 10:06:56;;;;;;;14.17;9.60;;;;;;;;;;5074372;28;20621;-73
2020/12/17 10:09:27;;;;;;;17.40;10.57;;;;;;;;;;5074946;28;20456;-73
2020/12/17 10:12:03;;;;;;;13.10;9.20;;;;;;;;;;5075020;28;20461;-73
2020/12/17 10:14:31;;;;;;;14.57;8.90;;;;;;;;;;5075084;28;20734;-73
2020/12/17 10:16:59;;;;;;;10.83;8.27;;;;;;;;;;5080538;28;20457;-73
2020/12/17 10:19:32;;;;;;;12.97;8.80;;;;;;;;;;5094979;28;20447;-73
2020/12/17 10:22:05;;;;;;;14.73;9.50;;;;;;;;;;5095268;28;20480;-73
2020/12/17 10:24:38;;;;;;;14.97;9.67;;;;;;;;;;5095063;28;20439;-73
2020/12/17 10:27:07;;;;;;;14.20;9.87;;;;;;;;;;5094783;28;20715;-72
2020/12/17 10:29:35;;;;;;;11.27;8.40;;;;;;;;;;5092711;28;20829;-73
2020/12/17 10:32:03;;;;;;;14.43;9.90;;;;;;;;;;5076880;28;20925;-72
2020/12/17 10:34:30;;;;;;;12.20;8.97;;;;;;;;;;5095269;28;20490;-73
2020/12/17 10:36:58;;;;;;;13.20;10.00;;;;;;;;;;5094367;28;20517;-72
2020/12/17 10:39:31;;;;;;;15.33;9.97;;;;;;;;;;5093854;28;20491;-73
2020/12/17 10:42:03;;;;;;;11.77;9.43;;;;;;;;;;5084660;28;20467;-73
2020/12/17 10:44:36;;;;;;;12.87;9.77;;;;;;;;;;5075921;28;20480;-75
2020/12/17 10:47:07;;;;;;;12.87;8.70;;;;;;;;;;5094782;28;20464;-72
2020/12/17 10:49:34;;;;;;;16.60;12.43;;;;;;;;;;5087573;28;20532;-74
2020/12/17 10:52:11;;;;;;;17.40;11.50;;;;;;;;;;5078469;28;20777;-73
2020/12/17 10:54:39;;;;;;;14.80;11.03;;;;;;;;;;5078756;28;20494;-73
2020/12/17 10:57:07;;;;;;;15.77;10.00;;;;;;;;;;5078067;28;20451;-74
2020/12/17 10:59:46;;;;;;;15.20;10.50;;;;;;;;;;5091291;28;20464;-74
2020/12/17 11:02:16;;;;;;;12.20;9.87;;;;;;;;;;5097974;28;20713;-74
2020/12/17 11:04:47;;;;;;;13.90;10.87;;;;;;;;;;5097064;28;20508;-73
2020/12/17 11:07:18;;;;;;;15.50;9.93;;;;;;;;;;5098423;28;20569;-73
2020/12/17 11:09:46;;;;;;;14.13;10.30;;;;;;;;;;5097271;28;20456;-73
2020/12/17 11:12:18;;;;;;;11.60;9.60;;;;;;;;;;5097708;28;20505;-73
2020/12/17 11:14:53;;;;;;;18.00;12.03;;;;;;;;;;5094352;28;20803;-72
2020/12/17 11:17:27;;;;;;;14.47;10.60;;;;;;;;;;5096942;28;20894;-73
2020/12/17 11:20:12;;;;;;;12.67;10.30;;;;;;;;;;5097867;28;20459;-73
2020/12/17 11:22:39;;;;;;;14.17;10.13;;;;;;;;;;5078922;28;20518;-74
2020/12/17 11:25:17;;;;;;;16.80;11.93;;;;;;;;;;5075704;28;20480;-74
2020/12/17 11:27:58;;;;;;;18.00;11.50;;;;;;;;;;5076179;28;20437;-73
2020/12/17 11:30:27;;;;;;;17.73;10.90;;;;;;;;;;5075818;28;20468;-73
2020/12/17 11:32:57;;;;;;;13.77;10.40;;;;;;;;;;5076187;28;20453;-73
2020/12/17 11:35:28;;;;;;;17.50;11.00;;;;;;;;;;5078989;28;20865;-73
2020/12/17 11:37:56;;;;;;;16.67;12.67;;;;;;;;;;5098082;28;20448;-74
2020/12/17 11:40:24;;;;;;;17.20;12.33;;;;;;;;;;5097813;28;20456;-74
2020/12/17 11:42:53;;;;;;;12.10;9.40;;;;;;;;;;5095734;28;20482;-74
2020/12/17 11:45:22;;;;;;;15.13;11.27;;;;;;;;;;5081633;28;20469;-74
2020/12/17 11:47:53;;;;;;;14.73;10.50;;;;;;;;;;5076726;28;20449;-73
2020/12/17 11:50:20;;;;;;;13.93;11.50;;;;;;;;;;5077164;28;20956;-73
2020/12/17 11:52:48;;;;;;;13.43;9.97;;;;;;;;;;5077723;28;20453;-73
2020/12/17 11:55:17;;;;;;;18.80;11.80;;;;;;;;;;5079535;28;20476;-73
2020/12/17 11:57:55;;;;;;;14.80;10.97;;;;;;;;;;5096967;28;20529;-74
2020/12/17 12:00:27;;;;;;;12.57;9.00;;;;;;;;;;5101308;28;20455;-73
2020/12/17 12:02:55;;;;;;;14.73;10.07;;;;;;;;;;5100027;28;20463;-73
2020/12/17 12:05:22;;;;;;;15.63;11.53;;;;;;;;;;5096890;28;20452;-72
2020/12/17 12:07:50;;;;;;;16.67;11.50;;;;;;;;;;5095754;28;20452;-73
2020/12/17 12:10:18;;;;;;;23.60;17.20;;;;;;;;;;5096411;28;20816;-73
2020/12/17 12:12:51;;;;;;;16.50;11.43;;;;;;;;;;5096081;28;20740;-73
2020/12/17 12:15:22;;;;;;;14.93;11.47;;;;;;;;;;5092989;28;20769;-74
2020/12/17 12:17:53;;;;;;;17.77;11.60;;;;;;;;;;5083711;28;20444;-74
2020/12/17 12:20:20;;;;;;;16.70;10.93;;;;;;;;;;5077639;28;20709;-73
2020/12/17 12:22:47;;;;;;;15.00;10.00;;;;;;;;;;5076905;28;20471;-73
2020/12/17 12:25:15;;;;;;;14.70;11.07;;;;;;;;;;5075658;28;20453;-73
2020/12/17 12:27:48;;;;;;;15.47;10.57;;;;;;;;;;5075808;28;20449;-73
2020/12/17 12:30:15;;;;;;;13.10;10.23;;;;;;;;;;5076158;28;20544;-74
2020/12/17 12:32:43;;;;;;;12.90;10.17;;;;;;;;;;5076405;28;20460;-73
2020/12/17 12:35:14;;;;;;;13.87;10.30;;;;;;;;;;5074322;28;20485;-73
2020/12/17 12:37:42;;;;;;;14.70;10.30;;;;;;;;;;5074012;28;20713;-73
2020/12/17 12:40:10;;;;;;;11.50;9.50;;;;;;;;;;5074706;28;20471;-73
2020/12/17 12:42:37;;;;;;;11.73;9.40;;;;;;;;;;5087988;28;20739;-73
2020/12/17 12:45:06;;;;;;;12.27;9.13;;;;;;;;;;5094792;28;20456;-72
2020/12/17 12:47:33;;;;;;;12.23;10.20;;;;;;;;;;5095469;28;20489;-72
2020/12/17 12:50:01;;;;;;;14.03;10.20;;;;;;;;;;5096046;28;20479;-73
2020/12/17 12:52:30;;;;;;;11.77;10.30;;;;;;;;;;5095647;28;20463;-72
2020/12/17 12:54:57;;;;;;;12.10;9.87;;;;;;;;;;5095434;28;20818;-73
2020/12/17 12:57:24;;;;;;;14.60;10.47;;;;;;;;;;5094774;28;20837;-74
2020/12/17 13:00:13;;;;;;;12.27;10.10;;;;;;;;;;5094978;28;20471;-74
2020/12/17 13:02:41;;;;;;;10.90;8.93;;;;;;;;;;5084711;28;20462;-74
2020/12/17 13:05:09;;;;;;;11.97;10.63;;;;;;;;;;5095566;28;20487;-73
2020/12/17 13:07:37;;;;;;;12.83;10.20;;;;;;;;;;5095936;28;20452;-73
2020/12/17 13:10:05;;;;;;;11.83;9.07;;;;;;;;;;5093768;28;20501;-73
2020/12/17 13:12:41;;;;;;;13.43;9.30;;;;;;;;;;5095645;28;20452;-73
2020/12/17 13:15:14;;;;;;;12.27;9.60;;;;;;;;;;5085668;28;20508;-73
2020/12/17 13:17:41;;;;;;;11.83;9.13;;;;;;;;;;5087899;28;20456;-73
2020/12/17 13:20:13;;;;;;;11.93;8.00;;;;;;;;;;5085723;28;20469;-73
2020/12/17 13:22:45;;;;;;;11.30;7.53;;;;;;;;;;5077687;28;20468;-74
2020/12/17 13:25:19;;;;;;;9.37;7.70;;;;;;;;;;5075847;28;20468;-73
2020/12/17 13:27:49;;;;;;;9.40;7.30;;;;;;;;;;5073960;28;20485;-72
2020/12/17 13:30:19;;;;;;;10.30;8.50;;;;;;;;;;5074288;28;20460;-71
2020/12/17 13:32:48;;;;;;;11.30;8.23;;;;;;;;;;5073443;28;20449;-72
2020/12/17 13:35:16;;;;;;;11.60;9.43;;;;;;;;;;5077184;28;20479;-72
2020/12/17 13:37:47;;;;;;;11.80;8.27;;;;;;;;;;5092947;28;20513;-72
2020/12/17 13:40:15;;;;;;;16.10;9.43;;;;;;;;;;5095814;28;21019;-72
2020/12/17 13:42:42;;;;;;;9.80;7.80;;;;;;;;;;5094938;28;20459;-72
2020/12/17 13:45:10;;;;;;;11.83;7.60;;;;;;;;;;5096905;28;20790;-72
2020/12/17 13:47:37;;;;;;;9.20;7.17;;;;;;;;;;5094159;28;20498;-72
2020/12/17 13:50:11;;;;;;;11.10;7.27;;;;;;;;;;5094799;28;20459;-72
2020/12/17 13:52:39;;;;;;;7.93;5.60;;;;;;;;;;5094435;28;20454;-72
2020/12/17 13:55:20;;;;;;;6.13;5.13;;;;;;;;;;5096136;28;20903;-72
2020/12/17 13:57:47;;;;;;;6.17;4.70;;;;;;;;;;5094951;28;20542;-72
2020/12/17 14:00:16;;;;;;;6.17;4.57;;;;;;;;;;5095089;28;20495;-72
2020/12/17 14:02:43;;;;;;;5.70;4.47;;;;;;;;;;5093774;28;20521;-72
2020/12/17 14:05:38;;;;;;;5.47;4.27;;;;;;;;;;5095885;28;20456;-72
2020/12/17 14:08:05;;;;;;;7.17;4.90;;;;;;;;;;5073587;28;20472;-73
2020/12/17 14:10:36;;;;;;;6.43;5.33;;;;;;;;;;5074641;28;20449;-73
2020/12/17 14:13:03;;;;;;;8.10;5.23;;;;;;;;;;5089590;28;20785;-72
2020/12/17 14:15:30;;;;;;;9.07;5.10;;;;;;;;;;5087618;28;20483;-72
2020/12/17 14:17:59;;;;;;;8.20;5.93;;;;;;;;;;5089876;28;20461;-73
2020/12/17 14:20:40;;;;;;;5.83;4.73;;;;;;;;;;5089179;28;20535;-74
2020/12/17 14:23:20;;;;;;;8.00;5.90;;;;;;;;;;5086622;28;20456;-73
2020/12/17 14:25:53;;;;;;;7.40;5.77;;;;;;;;;;5099742;28;21120;-73
2020/12/17 14:28:20;;;;;;;6.80;5.30;;;;;;;;;;5090760;28;20469;-73
2020/12/17 14:30:47;;;;;;;6.00;5.40;;;;;;;;;;5095389;28;20543;-73
2020/12/17 14:33:15;;;;;;;7.80;6.10;;;;;;;;;;5098233;28;20428;-73
2020/12/17 14:35:47;;;;;;;8.80;5.60;;;;;;;;;;5096070;28;20457;-73
2020/12/17 14:38:19;;;;;;;8.43;6.73;;;;;;;;;;5080573;28;20540;-73
2020/12/17 14:40:52;;;;;;;7.73;6.93;;;;;;;;;;5078780;28;20465;-73
2020/12/17 14:43:23;;;;;;;7.50;6.70;;;;;;;;;;5080534;28;20974;-72